Sheldon, Wisconsin
Current Conditions -  °F | °C
As of 3:55 AM on Saturday 25 Oct 2014 (Local Time) from KRCX Reporting Station
Clear Clear  
Wind Chill: 52°   Ceiling: Unl
Heat Index: 52°   Visibility: 10mi
Dew Point: 43°   Wind: 10mph
Humidity: 72%   Direction: 290°WNW
Pressure: 29.88"   Gusts: NA
Location:  45.31°N, 90.96°W
Report Text: KRCX 250855Z AUTO 29009KT 10SM CLR 11/06 A2988 RMK AO2 T01100062
Loading
Personal Weather Stations






























Interactive Weather Map
Tropical Storm Tracking
New forecast layout! Learn more

10-Day Weather Forecast

Advertisements
Track Severe Weather on mobile